Time;durP1;ratioP1;P1;durP2;ratioP2;P2;SDS_P1;SDS_P2;PMS_P1;PMS_P2;Temp;Humidity;BMP_temperature;BMP_pressure;BME280_temperature;BME280_humidity;BME280_pressure;Samples;Min_cycle;Max_cycle;Signal;HPM_P1;HPM_P2
2022/10/29 00:00:50;;;;;;;10.97;9.97;;;;;;;9.31;100.00;97888.44;4968559;28;20263;-65
2022/10/29 00:03:19;;;;;;;9.90;9.10;;;;;;;9.23;100.00;97884.72;4930764;28;20216;-63
2022/10/29 00:06:00;;;;;;;10.70;9.70;;;;;;;9.13;100.00;97878.75;4949125;28;20232;-66
2022/10/29 00:08:29;;;;;;;10.77;9.80;;;;;;;9.11;100.00;97873.63;4951778;28;20475;-65
2022/10/29 00:11:05;;;;;;;10.50;9.60;;;;;;;9.05;100.00;97884.00;4968471;28;20405;-64
2022/10/29 00:13:33;;;;;;;11.20;10.20;;;;;;;9.04;100.00;97887.63;4970562;28;21646;-62
2022/10/29 00:16:04;;;;;;;10.43;9.50;;;;;;;8.98;100.00;97876.69;4969520;28;20204;-63
2022/10/29 00:18:32;;;;;;;10.37;9.30;;;;;;;8.95;100.00;97877.00;4927474;28;20232;-66
2022/10/29 00:21:03;;;;;;;10.20;9.27;;;;;;;8.88;100.00;97880.44;4925302;28;20753;-64
2022/10/29 00:23:31;;;;;;;10.73;9.83;;;;;;;8.86;100.00;97882.41;4974486;28;20655;-65
2022/10/29 00:26:00;;;;;;;12.73;9.93;;;;;;;8.94;100.00;97885.09;4973132;28;20496;-66
2022/10/29 00:28:29;;;;;;;10.87;9.87;;;;;;;8.89;100.00;97871.50;4976617;28;20389;-68
2022/10/29 00:30:57;;;;;;;10.80;9.80;;;;;;;8.93;100.00;97875.50;4963893;28;20740;-66
2022/10/29 00:33:25;;;;;;;11.20;10.10;;;;;;;8.92;100.00;97869.41;4974978;28;20946;-65
2022/10/29 00:35:57;;;;;;;10.27;9.27;;;;;;;8.90;100.00;97868.72;4928885;28;20213;-70
2022/10/29 00:38:26;;;;;;;10.50;9.53;;;;;;;8.90;100.00;97868.72;4973592;28;20833;-62
2022/10/29 00:40:55;;;;;;;11.30;9.90;;;;;;;8.89;100.00;97871.50;4972298;28;20290;-62
2022/10/29 00:43:25;;;;;;;10.53;9.43;;;;;;;8.84;100.00;97869.31;4975896;28;20220;-65
2022/10/29 00:46:40;;;;;;;10.67;9.67;;;;;;;9.06;100.00;97883.00;4972330;28;20430;-64
2022/10/29 00:49:09;;;;;;;10.43;9.53;;;;;;;9.03;100.00;97885.97;4972730;28;20596;-65
2022/10/29 00:51:38;;;;;;;10.80;8.40;;;;;;;9.00;100.00;97883.63;4953154;28;20214;-64
2022/10/29 00:54:09;;;;;;;10.20;9.27;;;;;;;8.99;100.00;97880.16;4961114;28;20666;-62
2022/10/29 00:56:40;;;;;;;10.03;9.23;;;;;;;8.95;100.00;97886.75;4972841;28;20290;-66
2022/10/29 00:59:09;;;;;;;10.67;9.67;;;;;;;8.94;100.00;97888.56;4974441;28;20588;-66
2022/10/29 01:01:37;;;;;;;11.07;9.53;;;;;;;8.92;100.00;97882.63;4972681;28;20516;-65
2022/10/29 01:04:06;;;;;;;10.50;9.40;;;;;;;8.89;100.00;97887.38;4973648;28;20215;-64
2022/10/29 01:06:34;;;;;;;10.20;9.20;;;;;;;8.86;100.00;97872.63;4978262;28;20541;-67
2022/10/29 01:09:02;;;;;;;10.40;9.40;;;;;;;8.91;100.00;97870.38;4933441;28;21581;-65
2022/10/29 01:11:41;;;;;;;9.97;8.90;;;;;;;8.88;100.00;97873.31;4972547;28;20401;-68
2022/10/29 01:14:18;;;;;;;10.80;9.87;;;;;;;8.91;100.00;97878.31;4973338;28;20401;-66
2022/10/29 01:16:53;;;;;;;10.30;9.20;;;;;;;8.93;100.00;97886.06;4974638;28;20683;-66
2022/10/29 01:19:31;;;;;;;10.57;9.47;;;;;;;8.91;100.00;97898.63;4971806;28;20584;-62
2022/10/29 01:22:03;;;;;;;10.83;9.83;;;;;;;8.93;100.00;97897.47;4974920;28;20374;-67
2022/10/29 01:24:57;;;;;;;10.40;9.27;;;;;;;8.96;100.00;97902.47;4929764;28;20522;-68
2022/10/29 01:27:52;;;;;;;11.63;10.63;;;;;;;9.05;100.00;97895.38;4971455;28;20516;-65
2022/10/29 01:30:27;;;;;;;11.13;10.03;;;;;;;9.06;100.00;97901.50;4970316;28;20493;-66
2022/10/29 01:33:07;;;;;;;10.30;9.40;;;;;;;9.09;100.00;97894.09;4974886;28;20592;-66
2022/10/29 01:35:43;;;;;;;11.03;9.93;;;;;;;9.06;100.00;97891.75;4973527;28;22228;-66
2022/10/29 01:38:24;;;;;;;12.77;11.53;;;;;;;9.05;100.00;97890.09;4945631;28;20232;-63
2022/10/29 01:40:58;;;;;;;14.20;10.27;;;;;;;8.99;100.00;97880.16;4972334;28;20827;-65
2022/10/29 01:43:31;;;;;;;11.10;9.97;;;;;;;8.97;100.00;97880.31;4971461;28;20212;-66
2022/10/29 01:46:02;;;;;;;11.20;10.17;;;;;;;9.01;100.00;97880.00;4974476;28;20235;-65
2022/10/29 01:48:33;;;;;;;10.93;9.93;;;;;;;9.02;100.00;97881.66;4971196;28;20417;-66
2022/10/29 01:51:05;;;;;;;9.93;9.00;;;;;;;9.01;100.00;97878.19;4975403;28;20204;-63
2022/10/29 01:53:35;;;;;;;11.07;9.97;;;;;;;9.00;100.00;97878.34;4972381;28;20465;-64
2022/10/29 01:56:03;;;;;;;10.57;9.57;;;;;;;8.96;100.00;97869.91;4932327;28;20212;-63
2022/10/29 01:58:32;;;;;;;10.13;9.07;;;;;;;8.93;100.00;97865.78;4971296;28;20989;-63
2022/10/29 02:01:08;;;;;;;10.83;9.83;;;;;;;8.95;100.00;97861.16;4972327;28;20211;-66
2022/10/29 02:03:46;;;;;;;10.73;9.73;;;;;;;8.90;100.00;97858.16;4973108;28;20488;-66
2022/10/29 02:06:21;;;;;;;9.87;8.97;;;;;;;8.86;100.00;97864.72;4970763;28;20224;-65
2022/10/29 02:08:55;;;;;;;11.30;10.20;;;;;;;8.80;100.00;97850.34;4975261;28;20312;-66
2022/10/29 02:11:25;;;;;;;13.37;11.23;;;;;;;8.82;100.00;97847.50;4927916;28;20209;-66
2022/10/29 02:13:58;;;;;;;14.00;11.63;;;;;;;8.78;100.00;97840.88;4973978;28;20227;-64
2022/10/29 02:16:26;;;;;;;12.33;11.03;;;;;;;8.77;100.00;97842.72;4971177;28;20279;-68
2022/10/29 02:18:57;;;;;;;12.60;11.40;;;;;;;8.74;100.00;97842.19;4974907;28;20232;-65
2022/10/29 02:21:25;;;;;;;15.07;12.17;;;;;;;8.72;100.00;97844.16;4970437;28;21125;-65
2022/10/29 02:23:53;;;;;;;12.53;11.20;;;;;;;8.73;100.00;97843.19;4973546;28;20209;-66
2022/10/29 02:26:21;;;;;;;12.33;11.10;;;;;;;8.76;100.00;97840.22;4928145;28;20228;-64
2022/10/29 02:28:49;;;;;;;13.53;10.60;;;;;;;8.73;100.00;97840.53;4905337;28;20989;-67
2022/10/29 02:31:18;;;;;;;12.57;11.30;;;;;;;8.72;100.00;97839.72;4972042;28;20799;-65
2022/10/29 02:33:46;;;;;;;12.00;10.80;;;;;;;8.64;100.00;97832.56;4971200;28;20212;-63
2022/10/29 02:36:15;;;;;;;11.77;10.57;;;;;;;8.60;100.00;97827.72;4954881;28;20204;-62
2022/10/29 02:38:44;;;;;;;11.60;10.60;;;;;;;8.64;100.00;97826.44;4967872;28;20447;-65
2022/10/29 02:41:12;;;;;;;12.03;10.93;;;;;;;8.56;100.00;97819.31;4972656;28;20576;-68
2022/10/29 02:43:40;;;;;;;11.80;10.60;;;;;;;8.54;100.00;97819.44;4928669;28;20351;-65
2022/10/29 02:46:13;;;;;;;11.80;10.37;;;;;;;8.52;100.00;97821.41;4973044;28;20243;-64
2022/10/29 02:48:41;;;;;;;11.30;9.37;;;;;;;8.47;100.00;97821.03;4970679;28;20600;-65
2022/10/29 02:51:10;;;;;;;11.03;9.17;;;;;;;8.51;100.00;97824.19;4955237;28;20443;-67
2022/10/29 02:53:39;;;;;;;11.87;10.13;;;;;;;8.53;100.00;97822.25;4970365;28;20212;-63
2022/10/29 02:56:08;;;;;;;11.33;10.20;;;;;;;8.51;100.00;97830.34;4973400;28;20223;-67
2022/10/29 02:58:36;;;;;;;10.40;9.40;;;;;;;8.45;100.00;97827.44;4970018;28;20448;-65
2022/10/29 03:01:05;;;;;;;10.60;9.33;;;;;;;8.42;100.00;97819.81;4931246;28;20219;-67
2022/10/29 03:03:33;;;;;;;10.77;9.77;;;;;;;8.32;100.00;97817.28;4968742;28;20364;-66
2022/10/29 03:06:02;;;;;;;9.20;8.30;;;;;;;8.24;100.00;97818.88;4954488;28;20216;-65
2022/10/29 03:08:30;;;;;;;17.03;8.07;;;;;;;8.21;100.00;97816.53;4970794;28;20231;-65
2022/10/29 03:10:59;;;;;;;8.33;7.63;;;;;;;8.21;100.00;97815.72;4971645;28;20393;-66
2022/10/29 03:13:28;;;;;;;10.03;8.10;;;;;;;8.19;100.00;97818.50;4970311;28;20264;-66
2022/10/29 03:15:56;;;;;;;8.67;7.80;;;;;;;8.07;100.00;97815.28;4931787;28;20715;-65
2022/10/29 03:18:24;;;;;;;8.50;7.70;;;;;;;8.03;100.00;97815.75;4970002;28;20221;-64
2022/10/29 03:20:52;;;;;;;9.57;8.67;;;;;;;8.09;100.00;97818.59;4953310;28;21008;-66
2022/10/29 03:23:21;;;;;;;8.70;7.90;;;;;;;8.14;100.00;97815.50;4971410;28;20343;-65
2022/10/29 03:25:51;;;;;;;9.27;8.30;;;;;;;8.10;100.00;97820.25;4969959;28;20204;-63
2022/10/29 03:28:26;;;;;;;12.43;8.30;;;;;;;8.07;100.00;97827.66;4970933;28;20238;-65
2022/10/29 03:30:54;;;;;;;11.13;8.97;;;;;;;7.96;100.00;97816.38;4971756;28;20291;-68
2022/10/29 03:33:24;;;;;;;10.00;8.63;;;;;;;8.03;100.00;97826.31;4930747;28;20775;-67
2022/10/29 03:35:57;;;;;;;9.60;8.70;;;;;;;7.97;100.00;97825.09;4971721;28;20266;-63
2022/10/29 03:38:25;;;;;;;9.43;8.63;;;;;;;7.96;100.00;97818.16;4937064;28;20228;-66
2022/10/29 03:40:54;;;;;;;10.93;8.93;;;;;;;8.01;100.00;97821.16;4971802;28;20696;-66
2022/10/29 03:43:22;;;;;;;10.87;9.80;;;;;;;8.02;100.00;97824.66;4971202;28;20471;-65
2022/10/29 03:45:52;;;;;;;9.97;9.10;;;;;;;7.94;100.00;97831.50;4948579;28;20216;-64
2022/10/29 03:48:20;;;;;;;9.23;8.47;;;;;;;7.88;100.00;97823.38;4926102;28;20825;-63
2022/10/29 03:50:55;;;;;;;9.73;8.87;;;;;;;7.87;100.00;97840.19;4970600;28;20209;-62
2022/10/29 03:53:23;;;;;;;9.37;8.57;;;;;;;7.85;100.00;97826.31;4930488;28;20598;-66
2022/10/29 03:55:52;;;;;;;10.57;9.57;;;;;;;7.88;100.00;97841.84;4947611;28;20223;-63
2022/10/29 03:58:23;;;;;;;9.33;8.53;;;;;;;7.74;100.00;97835.28;4969847;28;21505;-64
2022/10/29 04:00:57;;;;;;;11.47;9.00;;;;;;;7.74;100.00;97828.16;4968869;28;20205;-63
2022/10/29 04:03:25;;;;;;;10.50;9.00;;;;;;;7.69;100.00;97835.72;4928164;28;20762;-61
2022/10/29 04:05:53;;;;;;;9.00;8.17;;;;;;;7.74;100.00;97830.00;4968771;28;20208;-64
2022/10/29 04:08:21;;;;;;;10.63;9.23;;;;;;;7.73;100.00;97828.34;4950273;28;20900;-61
2022/10/29 04:10:50;;;;;;;11.33;8.57;;;;;;;7.66;100.00;97825.47;4968582;28;20810;-65
2022/10/29 04:13:19;;;;;;;10.10;9.20;;;;;;;7.74;100.00;97832.63;4968366;28;20766;-63
2022/10/29 04:15:47;;;;;;;10.93;9.87;;;;;;;7.75;100.00;97837.75;4947378;28;21584;-65
2022/10/29 04:18:17;;;;;;;11.87;9.20;;;;;;;7.76;100.00;97843.88;4927309;28;20239;-65
2022/10/29 04:20:45;;;;;;;15.43;10.87;;;;;;;7.78;100.00;97832.19;4940237;28;20876;-65
2022/10/29 04:23:33;;;;;;;12.10;10.70;;;;;;;7.92;100.00;97832.63;4932985;28;20818;-67
2022/10/29 04:26:21;;;;;;;12.77;11.40;;;;;;;7.85;100.00;97836.88;4969976;28;20228;-64
2022/10/29 04:29:10;;;;;;;13.60;9.77;;;;;;;7.84;100.00;97835.22;4971925;28;21433;-65
2022/10/29 04:31:38;;;;;;;14.00;11.37;;;;;;;7.84;100.00;97816.75;4970460;28;20570;-64
2022/10/29 04:34:07;;;;;;;11.90;10.53;;;;;;;7.85;100.00;97816.56;4934070;28;20220;-60
2022/10/29 04:36:36;;;;;;;12.63;8.90;;;;;;;7.90;100.00;97821.41;4928160;28;20223;-60
2022/10/29 04:39:04;;;;;;;10.03;9.03;;;;;;;7.92;100.00;97816.81;4973139;28;20415;-60
2022/10/29 04:41:33;;;;;;;14.67;9.80;;;;;;;7.90;100.00;97814.31;4964973;28;20235;-58
2022/10/29 04:44:02;;;;;;;11.83;10.77;;;;;;;7.98;100.00;97816.19;4973860;28;22285;-58
2022/10/29 04:46:30;;;;;;;12.57;11.27;;;;;;;8.09;100.00;97812.50;4942987;28;20212;-59
2022/10/29 04:48:58;;;;;;;16.03;12.13;;;;;;;8.20;100.00;97822.81;4969156;28;20849;-58
2022/10/29 04:51:28;;;;;;;15.10;12.70;;;;;;;8.30;100.00;97832.44;4929932;28;20392;-59
2022/10/29 04:53:56;;;;;;;14.67;12.87;;;;;;;8.36;100.00;97842.41;4971212;28;20208;-60
2022/10/29 04:56:24;;;;;;;18.67;12.63;;;;;;;8.40;100.00;97841.13;4973194;28;20210;-64
2022/10/29 04:58:53;;;;;;;20.43;13.93;;;;;;;8.36;100.00;97834.50;4971080;28;21563;-65
2022/10/29 05:01:21;;;;;;;14.43;12.57;;;;;;;8.37;100.00;97841.44;4972025;28;20197;-66
2022/10/29 05:03:49;;;;;;;14.07;12.43;;;;;;;8.29;100.00;97849.25;4953021;28;20219;-63
2022/10/29 05:06:24;;;;;;;13.73;12.13;;;;;;;8.22;100.00;97843.78;4969120;28;20285;-67
2022/10/29 05:08:54;;;;;;;17.00;12.17;;;;;;;8.09;100.00;97842.34;4951120;28;20326;-67
2022/10/29 05:11:22;;;;;;;16.10;12.20;;;;;;;8.03;100.00;97847.41;4976837;28;20861;-66
2022/10/29 05:13:50;;;;;;;14.37;11.47;;;;;;;7.96;100.00;97845.41;4974079;28;20281;-68
2022/10/29 05:16:18;;;;;;;14.70;11.50;;;;;;;7.87;100.00;97850.72;4977781;28;20205;-65
2022/10/29 05:18:46;;;;;;;11.57;10.47;;;;;;;7.88;100.00;97855.03;4956475;28;20224;-70
2022/10/29 05:21:15;;;;;;;14.73;11.27;;;;;;;7.81;100.00;97846.88;4976681;28;20209;-65
2022/10/29 05:23:43;;;;;;;12.10;10.63;;;;;;;7.69;100.00;97856.81;4932084;28;20200;-65
2022/10/29 05:26:13;;;;;;;12.37;10.60;;;;;;;7.65;100.00;97850.19;4976479;28;20747;-67
2022/10/29 05:28:41;;;;;;;11.63;10.53;;;;;;;7.59;100.00;97853.41;4972520;28;20236;-64
2022/10/29 05:31:09;;;;;;;11.23;10.10;;;;;;;7.49;100.00;97854.31;4975515;28;20219;-65
2022/10/29 05:33:37;;;;;;;11.33;10.33;;;;;;;7.48;100.00;97854.44;4960774;28;20251;-66
2022/10/29 05:36:06;;;;;;;12.93;9.87;;;;;;;7.39;100.00;97862.25;4975003;28;20224;-67
2022/10/29 05:38:34;;;;;;;14.37;9.83;;;;;;;7.40;100.00;97855.19;4941048;28;20228;-66
2022/10/29 05:41:02;;;;;;;10.80;9.80;;;;;;;7.36;100.00;97865.19;4969738;28;20936;-67
2022/10/29 05:43:32;;;;;;;12.07;10.80;;;;;;;7.34;100.00;97874.22;4976881;28;20222;-69
2022/10/29 05:46:02;;;;;;;11.47;10.43;;;;;;;7.36;100.00;97859.94;4974595;28;20209;-66
2022/10/29 05:48:30;;;;;;;14.17;9.83;;;;;;;7.25;100.00;97854.84;4959605;28;20228;-67
2022/10/29 05:50:59;;;;;;;14.53;10.97;;;;;;;7.30;100.00;97860.50;4976637;28;21836;-67
2022/10/29 05:53:27;;;;;;;10.90;9.67;;;;;;;7.41;100.00;97858.66;4938103;28;20459;-64
2022/10/29 05:55:55;;;;;;;11.37;10.23;;;;;;;7.49;100.00;97858.75;4974600;28;20246;-65
2022/10/29 05:58:23;;;;;;;12.07;10.40;;;;;;;7.55;100.00;97858.13;4971920;28;20224;-69
2022/10/29 06:00:53;;;;;;;11.50;10.30;;;;;;;7.72;100.00;97860.97;4976086;28;20205;-67
2022/10/29 06:03:22;;;;;;;14.47;11.17;;;;;;;7.83;100.00;97866.03;4973523;28;20232;-67
2022/10/29 06:05:51;;;;;;;12.50;11.20;;;;;;;7.89;100.00;97861.97;4955624;28;20209;-66
2022/10/29 06:08:19;;;;;;;12.07;10.87;;;;;;;8.00;100.00;97863.56;4936441;28;20834;-66
2022/10/29 06:10:47;;;;;;;14.40;11.00;;;;;;;8.08;100.00;97858.34;4977298;28;20834;-67
2022/10/29 06:13:17;;;;;;;16.50;11.87;;;;;;;8.06;100.00;97857.69;4972184;28;20204;-69
2022/10/29 06:15:46;;;;;;;13.60;12.20;;;;;;;8.06;100.00;97850.56;4975531;28;20219;-63
2022/10/29 06:18:16;;;;;;;14.17;12.17;;;;;;;8.20;100.00;97858.94;4975391;28;20455;-67
2022/10/29 06:20:44;;;;;;;18.43;16.53;;;;;;;8.27;100.00;97860.00;4960447;28;20208;-66
2022/10/29 06:23:12;;;;;;;17.67;15.67;;;;;;;8.36;100.00;97858.25;4933470;28;20804;-67
2022/10/29 06:25:40;;;;;;;18.47;16.03;;;;;;;8.44;100.00;97857.47;4976568;28;20208;-66
2022/10/29 06:28:10;;;;;;;18.23;15.53;;;;;;;8.52;100.00;97858.41;4973738;28;20229;-64
2022/10/29 06:30:39;;;;;;;16.47;14.77;;;;;;;8.64;100.00;97871.34;4977754;28;20200;-66
2022/10/29 06:33:07;;;;;;;16.13;14.07;;;;;;;8.75;100.00;97867.63;4974069;28;20274;-66
2022/10/29 06:35:37;;;;;;;18.03;14.83;;;;;;;8.86;100.00;97875.28;4959970;28;20213;-67
2022/10/29 06:38:05;;;;;;;18.57;16.07;;;;;;;8.94;100.00;97874.50;4975339;28;20777;-66
2022/10/29 06:40:38;;;;;;;18.40;15.50;;;;;;;8.98;100.00;97878.50;4944444;28;20222;-65
2022/10/29 06:43:09;;;;;;;17.33;15.50;;;;;;;9.04;100.00;97885.78;4933263;28;20679;-67
2022/10/29 06:45:37;;;;;;;19.03;15.33;;;;;;;9.03;100.00;97883.31;4974118;28;20200;-68
2022/10/29 06:48:06;;;;;;;18.00;14.87;;;;;;;9.11;100.00;97893.94;4978768;28;20263;-71
2022/10/29 06:50:34;;;;;;;23.37;20.17;;;;;;;9.23;100.00;97894.50;4975465;28;20709;-65
2022/10/29 06:53:05;;;;;;;20.70;18.50;;;;;;;9.31;100.00;97893.72;4977965;28;20211;-66
2022/10/29 06:55:33;;;;;;;21.73;17.10;;;;;;;9.34;100.00;97896.03;4974866;28;20919;-68
2022/10/29 06:58:03;;;;;;;18.23;16.37;;;;;;;9.47;100.00;97890.28;4944111;28;20236;-65
2022/10/29 07:00:31;;;;;;;20.80;16.80;;;;;;;9.49;100.00;97883.03;4980025;28;20192;-65
2022/10/29 07:03:00;;;;;;;15.93;14.30;;;;;;;9.51;100.00;97886.34;4986574;28;20209;-67
2022/10/29 07:05:28;;;;;;;14.77;13.07;;;;;;;9.60;100.00;97887.19;4994168;28;20242;-67
2022/10/29 07:07:57;;;;;;;16.30;14.47;;;;;;;9.65;100.00;97895.47;5008238;28;20299;-68
2022/10/29 07:10:29;;;;;;;72.27;23.70;;;;;;;9.70;100.00;97893.19;5004610;28;20690;-67
2022/10/29 07:12:57;;;;;;;14.37;13.07;;;;;;;9.74;100.00;97898.97;4970324;28;20216;-65
2022/10/29 07:15:26;;;;;;;14.20;12.77;;;;;;;9.89;100.00;97899.19;5003784;28;20211;-66
2022/10/29 07:17:58;;;;;;;14.93;13.40;;;;;;;10.04;100.00;97908.19;5005748;28;20683;-68
2022/10/29 07:20:27;;;;;;;15.80;13.80;;;;;;;10.05;100.00;97904.53;5003161;28;20209;-66
2022/10/29 07:22:56;;;;;;;16.10;14.07;;;;;;;10.10;100.00;97910.16;5004302;28;20211;-65
2022/10/29 07:25:24;;;;;;;16.07;13.80;;;;;;;10.23;100.00;97908.84;5000496;28;21018;-65
2022/10/29 07:27:54;;;;;;;15.87;13.83;;;;;;;10.37;100.00;97913.50;4999793;28;20238;-66
2022/10/29 07:30:23;;;;;;;22.17;14.90;;;;;;;10.60;100.00;97904.06;4960869;28;20341;-66
2022/10/29 07:32:51;;;;;;;15.47;13.90;;;;;;;10.65;100.00;97899.94;4993981;28;20200;-66
2022/10/29 07:35:19;;;;;;;16.13;14.43;;;;;;;10.76;100.00;97896.13;4967420;28;20231;-69
2022/10/29 07:37:47;;;;;;;17.70;15.33;;;;;;;10.84;100.00;97892.66;4980284;28;20232;-68
2022/10/29 07:40:16;;;;;;;13.73;12.57;;;;;;;10.73;100.00;97890.31;4952472;28;22820;-66
2022/10/29 07:42:44;;;;;;;14.97;13.43;;;;;;;10.80;100.00;97897.44;4971692;28;20208;-65
2022/10/29 07:45:14;;;;;;;12.73;11.50;;;;;;;10.80;100.00;97899.28;4914222;28;20641;-66
2022/10/29 07:47:44;;;;;;;15.10;13.53;;;;;;;10.83;100.00;97893.66;4971896;28;20228;-64
2022/10/29 07:50:12;;;;;;;15.70;12.93;;;;;;;10.97;100.00;97895.59;4969957;28;21119;-68
2022/10/29 07:52:41;;;;;;;15.23;13.93;;;;;;;10.95;100.00;97900.25;4970817;28;21257;-66
2022/10/29 07:55:09;;;;;;;14.87;13.37;;;;;;;11.04;100.00;97903.72;4968637;28;20340;-66
2022/10/29 07:57:37;;;;;;;13.67;12.23;;;;;;;11.10;100.00;97900.38;4973412;28;20837;-67
2022/10/29 08:00:07;;;;;;;13.77;12.20;;;;;;;11.15;100.00;97899.84;4927651;28;20212;-65
2022/10/29 08:02:36;;;;;;;13.67;12.37;;;;;;;11.27;100.00;97903.81;4951384;28;20208;-66
2022/10/29 08:05:05;;;;;;;16.50;13.00;;;;;;;11.20;100.00;97897.53;4971096;28;20219;-66
2022/10/29 08:07:34;;;;;;;14.60;13.23;;;;;;;11.28;100.00;97889.56;4971669;28;20339;-66
2022/10/29 08:10:02;;;;;;;15.20;13.70;;;;;;;11.20;100.00;97886.09;4967236;28;20329;-66
2022/10/29 08:12:31;;;;;;;15.40;13.70;;;;;;;11.17;100.00;97887.25;4969242;28;20593;-66
2022/10/29 08:14:59;;;;;;;15.20;13.63;;;;;;;11.22;100.00;97876.97;4940140;28;20322;-66
2022/10/29 08:17:29;;;;;;;14.50;13.07;;;;;;;11.13;100.00;97880.63;4942024;28;20251;-68
2022/10/29 08:19:59;;;;;;;14.63;12.60;;;;;;;11.12;100.00;97894.91;4962222;28;20680;-66
2022/10/29 08:22:30;;;;;;;27.90;23.00;;;;;;;11.31;100.00;97898.16;4970262;28;20223;-66
2022/10/29 08:24:59;;;;;;;23.23;20.73;;;;;;;11.38;100.00;97899.13;4958311;28;20830;-69
2022/10/29 08:27:27;;;;;;;16.43;13.50;;;;;;;11.58;100.00;97900.41;4968428;28;20231;-66
2022/10/29 08:29:56;;;;;;;13.23;12.03;;;;;;;11.86;100.00;97899.09;4929774;28;20228;-66
2022/10/29 08:32:25;;;;;;;13.20;11.90;;;;;;;11.92;100.00;97885.09;4958927;28;20905;-67
2022/10/29 08:34:55;;;;;;;14.93;13.43;;;;;;;11.87;100.00;97877.66;4971265;28;20534;-67
2022/10/29 08:37:24;;;;;;;13.60;12.33;;;;;;;11.95;100.00;97879.44;4970199;28;20234;-69
2022/10/29 08:39:53;;;;;;;13.83;12.43;;;;;;;11.91;100.00;97877.31;4975126;28;20319;-65
2022/10/29 08:42:30;;;;;;;13.87;12.33;;;;;;;12.10;100.00;97874.22;4953138;28;20317;-67
2022/10/29 08:45:11;;;;;;;15.10;11.97;;;;;;;12.24;100.00;97895.72;4950886;28;20208;-66
2022/10/29 08:47:53;;;;;;;11.70;10.60;;;;;;;12.43;100.00;97892.59;4954387;28;20246;-66
2022/10/29 08:50:24;;;;;;;12.70;11.40;;;;;;;12.42;100.00;97890.94;4930390;28;20227;-65
2022/10/29 08:52:55;;;;;;;13.63;12.00;;;;;;;12.57;100.00;97879.50;4953509;28;21727;-64
2022/10/29 08:55:43;;;;;;;17.13;15.43;;;;;;;12.57;100.00;97884.84;4973982;28;20201;-67
2022/10/29 08:58:20;;;;;;;13.37;12.10;;;;;;;12.58;100.00;97883.81;4954512;28;20224;-67
2022/10/29 09:00:49;;;;;;;13.90;12.57;;;;;;;12.73;100.00;97881.19;4953146;28;20208;-63
2022/10/29 09:03:17;;;;;;;12.90;11.77;;;;;;;12.76;100.00;97880.03;4975210;28;20986;-65
2022/10/29 09:05:51;;;;;;;17.33;10.60;;;;;;;12.91;100.00;97880.84;4940764;28;20481;-64
2022/10/29 09:08:31;;;;;;;11.93;10.70;;;;;;;13.10;100.00;97873.38;4948750;28;20232;-67
2022/10/29 09:11:04;;;;;;;12.70;10.97;;;;;;;13.14;100.00;97872.81;4973497;28;21294;-66
2022/10/29 09:13:41;;;;;;;12.17;11.07;;;;;;;13.11;100.00;97869.69;4956453;28;20216;-67
2022/10/29 09:16:32;;;;;;;12.73;11.43;;;;;;;13.44;100.00;97874.66;4950474;28;20247;-65
2022/10/29 09:19:20;;;;;;;11.33;10.37;;;;;;;13.55;100.00;97878.69;4970675;28;20236;-68
2022/10/29 09:21:56;;;;;;;11.27;10.10;;;;;;;13.62;100.00;97874.25;4929326;28;20727;-60
2022/10/29 09:24:33;;;;;;;12.47;11.13;;;;;;;13.84;100.00;97872.47;4970673;28;20363;-68
2022/10/29 09:27:06;;;;;;;12.07;10.87;;;;;;;13.76;100.00;97872.56;4970393;28;20215;-67
2022/10/29 09:30:01;;;;;;;10.87;9.80;;;;;;;13.45;100.00;97877.13;4964024;28;21012;-66
2022/10/29 09:32:34;;;;;;;11.50;10.17;;;;;;;13.37;100.00;97871.03;4966631;28;20341;-67
2022/10/29 09:35:06;;;;;;;11.70;10.50;;;;;;;13.48;100.00;97870.63;4974445;28;21643;-66
2022/10/29 09:37:45;;;;;;;14.20;12.90;;;;;;;13.84;100.00;97871.66;4951774;28;20465;-68
2022/10/29 09:40:18;;;;;;;14.07;11.57;;;;;;;14.18;100.00;97865.63;4974171;28;20200;-61
2022/10/29 09:42:47;;;;;;;11.73;10.60;;;;;;;14.34;100.00;97866.41;4943013;28;22487;-67
2022/10/29 09:45:18;;;;;;;11.70;10.47;;;;;;;14.24;100.00;97876.56;4974725;28;20258;-66
2022/10/29 09:47:54;;;;;;;11.17;10.07;;;;;;;13.99;100.00;97860.94;4973759;28;20227;-68
2022/10/29 09:50:27;;;;;;;12.40;10.17;;;;;;;13.71;100.00;97865.16;4973547;28;20224;-68
2022/10/29 09:52:55;;;;;;;11.90;10.60;;;;;;;14.07;100.00;97863.47;4931080;28;20219;-67
2022/10/29 09:55:27;;;;;;;15.83;10.33;;;;;;;14.07;100.00;97852.81;4975023;28;20255;-67
2022/10/29 09:57:57;;;;;;;14.20;10.90;;;;;;;14.24;100.00;97850.72;4936799;28;20232;-66
2022/10/29 10:00:28;;;;;;;12.10;9.40;;;;;;;14.40;100.00;97849.63;4971685;28;20204;-66
2022/10/29 10:03:01;;;;;;;11.50;10.37;;;;;;;14.85;100.00;97841.41;4971910;28;22544;-67
2022/10/29 10:05:31;;;;;;;13.37;9.73;;;;;;;15.11;100.00;97839.09;4974193;28;20209;-68
2022/10/29 10:08:10;;;;;;;10.73;9.77;;;;;;;15.31;100.00;97840.00;4942015;28;20228;-62
2022/10/29 10:10:51;;;;;;;10.30;9.30;;;;;;;15.59;100.00;97825.72;4972869;28;20216;-68
2022/10/29 10:13:20;;;;;;;10.87;9.53;;;;;;;15.87;100.00;97827.47;4955994;28;20211;-66
2022/10/29 10:15:55;;;;;;;10.90;9.30;;;;;;;16.13;100.00;97825.06;4953247;28;20387;-69
2022/10/29 10:18:24;;;;;;;11.27;9.03;;;;;;;16.38;100.00;97825.28;4971700;28;20673;-67
2022/10/29 10:21:05;;;;;;;11.23;8.93;;;;;;;16.49;100.00;97811.31;4937426;28;21002;-66
2022/10/29 10:23:42;;;;;;;9.60;8.80;;;;;;;15.71;100.00;97815.28;4972000;28;20746;-66
2022/10/29 10:26:33;;;;;;;9.07;8.03;;;;;;;15.75;100.00;97808.50;4972314;28;22208;-67
2022/10/29 10:29:13;;;;;;;19.63;17.30;;;;;;;15.87;100.00;97816.75;4951574;28;21713;-65
2022/10/29 10:31:42;;;;;;;14.10;12.60;;;;;;;15.94;100.00;97821.31;4971992;28;21318;-66
2022/10/29 10:34:19;;;;;;;11.10;8.33;;;;;;;15.71;100.00;97804.59;4972944;28;20599;-68
2022/10/29 10:36:50;;;;;;;9.67;8.50;;;;;;;16.03;100.00;97809.41;4934760;28;20501;-66
2022/10/29 10:39:27;;;;;;;9.10;8.30;;;;;;;16.26;100.00;97802.84;4971759;28;20196;-68
2022/10/29 10:41:59;;;;;;;8.87;7.93;;;;;;;16.13;100.00;97798.31;4969011;28;20618;-69
2022/10/29 10:44:28;;;;;;;9.00;7.73;;;;;;;16.19;100.00;97795.66;4955196;28;20220;-69
2022/10/29 10:46:58;;;;;;;7.40;6.70;;;;;;;16.30;100.00;97794.22;4969112;28;20278;-68
2022/10/29 10:49:32;;;;;;;8.83;7.97;;;;;;;16.30;97.87;97788.03;4972709;28;20212;-68
2022/10/29 10:52:03;;;;;;;10.23;7.27;;;;;;;16.06;99.97;97796.47;4927789;28;22325;-66
2022/10/29 10:54:35;;;;;;;7.90;7.10;;;;;;;16.19;100.00;97797.50;4971501;28;20234;-67
2022/10/29 10:57:21;;;;;;;7.90;7.27;;;;;;;16.17;100.00;97787.03;4933351;28;20343;-66
2022/10/29 10:59:58;;;;;;;8.50;7.17;;;;;;;16.40;100.00;97790.31;4973227;28;20883;-65
2022/10/29 11:02:33;;;;;;;11.07;6.77;;;;;;;16.67;97.80;97783.06;4952851;28;22693;-69
2022/10/29 11:05:11;;;;;;;7.93;7.13;;;;;;;16.61;96.29;97778.56;4971823;28;20707;-70
2022/10/29 11:07:43;;;;;;;9.83;8.77;;;;;;;16.65;96.31;97774.44;4973291;28;20231;-68
2022/10/29 11:10:12;;;;;;;9.47;8.67;;;;;;;16.61;94.81;97775.88;4952011;28;20439;-67
2022/10/29 11:12:44;;;;;;;9.37;7.97;;;;;;;16.53;95.28;97771.56;4929072;28;20579;-69
2022/10/29 11:15:16;;;;;;;8.37;7.60;;;;;;;16.69;96.21;97767.63;4968629;28;20213;-68
2022/10/29 11:17:47;;;;;;;7.73;7.03;;;;;;;16.72;94.47;97769.88;4970787;28;20726;-69
2022/10/29 11:20:24;;;;;;;7.23;6.63;;;;;;;16.69;94.96;97766.81;4969631;28;20394;-69
2022/10/29 11:23:05;;;;;;;13.27;7.13;;;;;;;16.69;94.69;97761.47;4968970;28;20270;-67
2022/10/29 11:25:39;;;;;;;7.70;6.93;;;;;;;16.59;96.05;97751.19;4972185;28;20201;-69
2022/10/29 11:28:23;;;;;;;10.07;6.67;;;;;;;16.30;96.84;97758.63;4924535;28;21948;-66
2022/10/29 11:30:56;;;;;;;7.53;6.83;;;;;;;16.36;97.91;97763.16;4971146;28;20592;-69
2022/10/29 11:33:33;;;;;;;8.50;7.53;;;;;;;16.08;100.00;97761.50;4970760;28;20431;-67
2022/10/29 11:36:06;;;;;;;8.60;7.83;;;;;;;16.19;100.00;97757.41;4970436;28;20226;-67
2022/10/29 11:38:40;;;;;;;13.30;11.97;;;;;;;16.09;100.00;97760.47;4954515;28;20734;-66